Time;durP1;ratioP1;P1;durP2;ratioP2;P2;SDS_P1;SDS_P2;PMS_P1;PMS_P2;Temp;Humidity;BMP_temperature;BMP_pressure;BME280_temperature;BME280_humidity;BME280_pressure;Samples;Min_cycle;Max_cycle;Signal;HPM_P1;HPM_P2
2023/05/19 00:02:19;;;;;;;;;;;13.90;53.10;;;9.38;83.38;95768.53;4991572;28;19913;-50
2023/05/19 00:04:46;;;;;;;;;;;13.90;53.20;;;9.39;82.86;95770.91;4992144;28;19909;-53
2023/05/19 00:07:18;;;;;;;;;;;13.90;53.30;;;9.43;84.33;95766.72;4989453;28;19944;-52
2023/05/19 00:09:45;;;;;;;;;;;13.90;53.30;;;9.45;84.43;95772.56;4990519;28;20273;-48
2023/05/19 00:12:12;;;;;;;;;;;13.90;53.40;;;9.49;83.42;95773.69;4990902;28;20036;-48
2023/05/19 00:14:38;;;;;;;;;;;13.90;53.50;;;9.49;84.08;95771.03;4991714;28;19909;-50
2023/05/19 00:17:04;;;;;;;;;;;13.90;53.50;;;9.48;84.90;95773.94;4990464;28;19913;-51
2023/05/19 00:19:31;;;;;;;;;;;13.90;53.60;;;9.47;83.66;95770.47;4989056;28;19910;-50
2023/05/19 00:21:58;;;;;;;;;;;13.90;53.60;;;9.43;84.54;95763.22;4991760;28;20033;-52
2023/05/19 00:24:23;;;;;;;;;;;13.90;53.60;;;9.36;84.66;95760.78;4990725;28;19990;-49
2023/05/19 00:26:49;;;;;;;;;;;13.90;53.70;;;9.37;85.45;95756.25;4991990;28;19909;-49
2023/05/19 00:29:17;;;;;;;;;;;13.90;53.70;;;9.33;85.59;95750.66;4990282;28;19909;-51
2023/05/19 00:31:43;;;;;;;;;;;13.90;53.70;;;9.37;84.84;95749.13;4989360;28;20276;-51
2023/05/19 00:34:09;;;;;;;;;;;13.90;53.80;;;9.34;84.87;95754.94;4991071;28;19920;-54
2023/05/19 00:36:35;;;;;;;;;;;13.90;53.80;;;9.35;85.26;95747.75;4997327;28;19917;-51
2023/05/19 00:39:00;;;;;;;;;;;13.80;53.80;;;9.37;84.66;95750.94;4991848;28;19968;-50
2023/05/19 00:41:28;;;;;;;;;;;13.80;53.90;;;9.41;84.67;95749.41;4988678;28;20008;-51
2023/05/19 00:43:54;;;;;;;;;;;13.80;54.00;;;9.38;84.84;95748.06;4991570;28;19921;-53
2023/05/19 00:46:21;;;;;;;;;;;13.80;54.00;;;9.37;84.83;95740.31;4990577;28;19928;-50
2023/05/19 00:48:47;;;;;;;;;;;13.80;54.00;;;9.32;84.76;95742.94;4992054;28;19916;-51
2023/05/19 00:51:15;;;;;;;;;;;13.80;54.10;;;9.34;85.34;95739.00;4995361;28;19909;-53
2023/05/19 00:53:47;;;;;;;;;;;13.80;54.10;;;9.30;84.36;95732.56;4993797;28;19913;-49
2023/05/19 00:56:15;;;;;;;;;;;13.80;54.20;;;9.32;84.08;95724.34;4995624;28;19909;-54
2023/05/19 00:58:41;;;;;;;;;;;13.70;54.20;;;9.36;83.91;95730.75;4995452;28;19953;-54
2023/05/19 01:01:07;;;;;;;;;;;13.70;54.20;;;9.32;83.88;95737.63;4994110;28;19955;-51
2023/05/19 01:03:34;;;;;;;;;;;13.70;54.20;;;9.29;84.57;95727.50;4995677;28;19916;-50
2023/05/19 01:06:06;;;;;;;;;;;13.70;54.20;;;9.30;83.90;95724.56;4989771;28;20296;-52
2023/05/19 01:08:36;;;;;;;;;;;13.70;54.30;;;9.30;84.20;95721.13;4992884;28;19909;-50
2023/05/19 01:11:06;;;;;;;;;;;13.70;54.30;;;9.22;84.08;95715.22;4995331;28;20020;-55
2023/05/19 01:13:35;;;;;;;;;;;13.70;54.30;;;9.27;84.73;95720.59;4998683;28;19916;-49
2023/05/19 01:16:31;;;;;;;;;;;13.70;54.40;;;9.28;83.76;95713.41;4994102;28;19909;-50
2023/05/19 01:19:34;;;;;;;;;;;13.60;54.40;;;9.29;84.17;95714.22;4994215;28;19980;-49
2023/05/19 01:22:53;;;;;;;;;;;13.60;54.40;;;9.25;84.02;95720.03;4994851;28;20387;-50
2023/05/19 01:26:00;;;;;;;;;;;13.60;54.60;;;9.25;84.84;95720.03;4967977;28;19944;-50
2023/05/19 01:29:03;;;;;;;;;;;13.60;54.60;;;9.27;84.96;95720.59;4972645;28;20364;-48
2023/05/19 01:31:30;;;;;;;;;;;13.60;54.60;;;9.22;84.41;95720.53;4993569;28;20288;-54
2023/05/19 01:33:57;;;;;;;;;;;13.60;54.70;;;9.25;84.64;95714.72;4994694;28;19992;-48
2023/05/19 01:36:26;;;;;;;;;;;13.60;54.70;;;9.26;84.81;95718.16;4994273;28;19916;-51
2023/05/19 01:39:00;;;;;;;;;;;13.60;54.70;;;9.25;84.87;95721.91;4993167;28;20052;-54
2023/05/19 01:41:28;;;;;;;;;;;13.60;54.80;;;9.23;85.05;95724.00;4987041;28;19935;-50
2023/05/19 01:43:55;;;;;;;;;;;13.60;54.80;;;9.23;85.08;95718.69;4993983;28;19920;-49
2023/05/19 01:46:23;;;;;;;;;;;13.60;54.80;;;9.19;84.65;95725.56;4993586;28;20398;-50
2023/05/19 01:48:50;;;;;;;;;;;13.60;54.80;;;9.25;84.72;95727.22;4994063;28;20000;-50
2023/05/19 01:51:16;;;;;;;;;;;13.60;54.80;;;9.29;84.51;95727.50;4993132;28;20383;-49
2023/05/19 01:53:42;;;;;;;;;;;13.70;54.90;;;9.32;84.86;95725.13;4995593;28;19959;-51
2023/05/19 01:56:07;;;;;;;;;;;13.70;54.90;;;9.33;85.62;95725.94;5000839;28;19924;-49
2023/05/19 01:58:47;;;;;;;;;;;13.70;55.00;;;9.27;85.05;95725.91;4994592;28;19949;-48
2023/05/19 02:02:25;;;;;;;;;;;13.70;55.00;;;9.26;84.81;95732.25;4992512;28;20347;-48
2023/05/19 02:04:59;;;;;;;;;;;13.70;55.00;;;9.27;84.77;95730.41;4953320;28;19913;-52
2023/05/19 02:08:00;;;;;;;;;;;13.70;55.00;;;9.27;84.64;95730.41;4994717;28;20364;-48
2023/05/19 02:10:31;;;;;;;;;;;13.70;55.00;;;9.30;84.77;95724.56;4993191;28;19913;-49
2023/05/19 02:13:03;;;;;;;;;;;13.70;55.10;;;9.29;85.07;95730.97;4991877;28;19909;-49
2023/05/19 02:15:39;;;;;;;;;;;13.70;55.10;;;9.20;85.26;95729.81;4993137;28;19909;-49
2023/05/19 02:18:08;;;;;;;;;;;13.70;55.10;;;9.15;86.03;95727.91;4979612;28;19917;-48
2023/05/19 02:20:34;;;;;;;;;;;13.70;55.10;;;9.06;85.84;95718.78;4992650;28;20000;-53
2023/05/19 02:23:00;;;;;;;;;;;13.70;55.10;;;9.14;85.90;95722.84;4994173;28;20047;-48
2023/05/19 02:25:26;;;;;;;;;;;13.70;55.40;;;9.12;86.06;95722.28;4993318;28;19920;-51
2023/05/19 02:27:51;;;;;;;;;;;13.60;55.10;;;9.09;86.32;95720.13;4993957;28;19957;-49
2023/05/19 02:30:17;;;;;;;;;;;13.60;55.20;;;9.07;86.31;95719.59;4992990;28;19909;-49
2023/05/19 02:32:45;;;;;;;;;;;13.60;55.20;;;9.02;86.40;95717.66;4993511;28;19975;-53
2023/05/19 02:35:12;;;;;;;;;;;13.60;55.20;;;9.03;86.88;95717.44;4993846;28;20055;-51
2023/05/19 02:37:38;;;;;;;;;;;13.60;55.30;;;8.98;87.29;95717.38;4992940;28;20441;-50
2023/05/19 02:40:05;;;;;;;;;;;13.50;55.30;;;8.95;87.22;95715.22;4993676;28;19924;-55
2023/05/19 02:42:31;;;;;;;;;;;13.50;55.40;;;8.94;87.58;95703.00;4992772;28;19920;-51
2023/05/19 02:44:56;;;;;;;;;;;13.50;55.40;;;8.93;87.41;95716.50;4992877;28;19917;-55
2023/05/19 02:47:22;;;;;;;;;;;13.50;55.40;;;8.96;87.55;95708.03;4992979;28;19993;-54
2023/05/19 02:49:48;;;;;;;;;;;13.50;55.50;;;9.02;87.14;95704.38;4993552;28;20296;-49
2023/05/19 02:52:13;;;;;;;;;;;13.50;55.60;;;8.97;87.47;95705.16;4993155;28;19959;-52
2023/05/19 02:54:39;;;;;;;;;;;13.40;55.50;;;8.96;87.46;95703.56;4992605;28;19917;-52
2023/05/19 02:57:05;;;;;;;;;;;13.40;55.60;;;8.89;87.52;95700.28;4993390;28;19917;-48
2023/05/19 02:59:31;;;;;;;;;;;13.40;55.70;;;8.91;88.19;95706.16;4992367;28;20307;-50
2023/05/19 03:02:01;;;;;;;;;;;13.40;56.30;;;8.89;88.17;95704.78;4992746;28;19909;-49
2023/05/19 03:04:28;;;;;;;;;;;13.40;56.30;;;8.83;88.54;95700.47;4993356;28;19975;-49
2023/05/19 03:06:54;;;;;;;;;;;13.30;55.60;;;8.78;88.51;95701.25;4992558;28;19909;-51
2023/05/19 03:09:20;;;;;;;;;;;13.30;55.70;;;8.76;88.74;95700.69;4993288;28;19909;-53
2023/05/19 03:11:46;;;;;;;;;;;13.30;55.80;;;8.82;88.80;95701.53;4991251;28;19909;-49
2023/05/19 03:14:14;;;;;;;;;;;13.30;55.80;;;8.76;88.88;95698.03;4992846;28;19959;-51
2023/05/19 03:16:40;;;;;;;;;;;13.30;55.80;;;8.80;88.63;95704.44;4993393;28;19913;-49
2023/05/19 03:19:07;;;;;;;;;;;13.30;55.90;;;8.77;88.73;95703.09;4991883;28;19918;-51
2023/05/19 03:21:33;;;;;;;;;;;13.30;55.90;;;8.68;89.08;95703.78;4992725;28;19909;-49
2023/05/19 03:24:02;;;;;;;;;;;13.20;55.90;;;8.69;89.28;95700.09;4990771;28;20334;-51
2023/05/19 03:26:28;;;;;;;;;;;13.20;56.00;;;8.72;89.42;95707.56;4992922;28;20326;-50
2023/05/19 03:28:54;;;;;;;;;;;13.20;56.60;;;8.74;89.16;95705.44;4992856;28;19917;-49
2023/05/19 03:31:20;;;;;;;;;;;13.20;56.00;;;8.74;89.31;95700.13;4994653;28;19909;-50
2023/05/19 03:33:46;;;;;;;;;;;13.10;56.00;;;8.70;89.44;95699.81;4992949;28;19955;-52
2023/05/19 03:36:11;;;;;;;;;;;13.10;56.00;;;8.67;89.54;95705.63;4997386;28;19916;-49
2023/05/19 03:38:37;;;;;;;;;;;13.20;56.10;;;8.67;89.59;95704.84;4992660;28;19913;-53
2023/05/19 03:41:03;;;;;;;;;;;13.10;56.10;;;8.64;90.02;95705.34;4991997;28;20368;-54
2023/05/19 03:43:29;;;;;;;;;;;13.10;56.10;;;8.57;90.23;95702.88;5000830;28;19920;-51
2023/05/19 03:45:55;;;;;;;;;;;13.10;56.20;;;8.51;90.78;95701.22;4992237;28;19917;-48
2023/05/19 03:48:21;;;;;;;;;;;13.10;56.20;;;8.51;90.99;95709.97;4991632;28;20069;-50
2023/05/19 03:50:47;;;;;;;;;;;13.00;56.20;;;8.51;90.93;95717.13;4992162;28;19948;-48
2023/05/19 03:53:13;;;;;;;;;;;13.00;56.30;;;8.50;91.13;95715.53;4992522;28;19940;-49
2023/05/19 03:55:39;;;;;;;;;;;13.00;56.40;;;8.44;91.37;95716.53;4991533;28;19944;-49
2023/05/19 03:58:05;;;;;;;;;;;12.90;57.00;;;8.43;91.67;95712.25;4991417;28;20374;-48
2023/05/19 04:00:32;;;;;;;;;;;12.90;56.40;;;8.39;91.74;95717.25;4990055;28;26909;-48
2023/05/19 04:02:59;;;;;;;;;;;12.90;56.50;;;8.35;92.05;95711.59;4992505;28;20000;-54
2023/05/19 04:05:24;;;;;;;;;;;12.90;56.50;;;8.32;92.41;95714.75;4991284;28;19971;-49
2023/05/19 04:07:50;;;;;;;;;;;12.90;56.60;;;8.31;92.56;95707.06;4996386;28;19913;-53
2023/05/19 04:10:16;;;;;;;;;;;12.80;56.60;;;8.27;93.18;95708.56;4992120;28;20334;-50
2023/05/19 04:12:42;;;;;;;;;;;12.80;56.60;;;8.26;93.31;95712.28;4993085;28;20323;-48
2023/05/19 04:15:10;;;;;;;;;;;12.80;56.60;;;8.17;93.80;95711.91;4991993;28;20360;-50
2023/05/19 04:17:36;;;;;;;;;;;12.80;56.60;;;8.21;93.95;95717.53;4991130;28;19913;-48
2023/05/19 04:20:04;;;;;;;;;;;12.80;56.60;;;8.19;94.10;95715.13;4991955;28;20390;-48
2023/05/19 04:22:31;;;;;;;;;;;12.80;56.70;;;8.18;94.14;95721.50;4991510;28;19919;-48
2023/05/19 04:24:57;;;;;;;;;;;12.80;56.70;;;8.22;94.09;95722.59;4990820;28;19944;-49
2023/05/19 04:27:23;;;;;;;;;;;12.80;56.70;;;8.16;94.60;95720.94;4992082;28;19925;-48
2023/05/19 04:29:49;;;;;;;;;;;12.90;56.70;;;8.23;93.95;95728.69;4991033;28;19915;-52
2023/05/19 04:32:16;;;;;;;;;;;12.90;56.70;;;8.24;93.97;95725.00;4991546;28;19909;-49
2023/05/19 04:34:44;;;;;;;;;;;12.90;56.70;;;8.27;94.23;95721.84;4991646;28;19909;-48
2023/05/19 04:37:12;;;;;;;;;;;12.90;56.70;;;8.33;94.09;95728.81;4990933;28;19924;-49
2023/05/19 04:39:42;;;;;;;;;;;13.00;56.80;;;8.35;94.27;95732.03;4991406;28;19924;-48
2023/05/19 04:42:10;;;;;;;;;;;13.00;56.80;;;8.42;94.10;95734.53;4989131;28;19909;-49
2023/05/19 04:44:39;;;;;;;;;;;13.10;56.80;;;8.53;93.55;95730.97;4991408;28;19924;-50
2023/05/19 04:47:07;;;;;;;;;;;13.20;56.80;;;8.57;93.20;95734.72;4991769;28;20003;-49
2023/05/19 04:49:37;;;;;;;;;;;13.30;56.80;;;8.64;92.93;95732.69;4990560;28;19917;-48
2023/05/19 04:52:11;;;;;;;;;;;13.40;56.80;;;8.71;92.57;95735.13;4991063;28;19917;-49
2023/05/19 04:54:38;;;;;;;;;;;13.50;56.80;;;8.78;92.72;95735.78;4973535;28;20395;-48
2023/05/19 04:57:04;;;;;;;;;;;13.60;56.70;;;8.87;91.77;95742.25;4991777;28;20362;-48
2023/05/19 04:59:30;;;;;;;;;;;13.70;56.70;;;8.88;91.48;95737.75;4990808;28;19914;-48
2023/05/19 05:01:56;;;;;;;;;;;13.80;56.60;;;8.92;91.34;95742.28;4991079;28;19963;-49
2023/05/19 05:04:22;;;;;;;;;;;13.90;56.50;;;9.00;90.60;95738.41;4991357;28;19909;-51
2023/05/19 05:06:49;;;;;;;;;;;14.00;56.50;;;8.92;90.21;95739.63;4990697;28;19916;-50
2023/05/19 05:09:16;;;;;;;;;;;14.10;56.40;;;9.06;90.56;95744.53;4991396;28;19913;-49
2023/05/19 05:11:43;;;;;;;;;;;14.10;56.30;;;9.09;89.97;95741.38;4990228;28;19920;-48
2023/05/19 05:14:09;;;;;;;;;;;14.20;56.30;;;9.05;89.97;95741.09;4987965;28;19920;-49
2023/05/19 05:16:36;;;;;;;;;;;14.20;56.80;;;9.14;89.96;95741.44;4991256;28;19925;-49
2023/05/19 05:19:02;;;;;;;;;;;14.20;56.10;;;9.17;89.10;95740.94;4984735;28;19939;-49
2023/05/19 05:21:28;;;;;;;;;;;14.30;56.10;;;9.09;90.62;95744.88;4990919;28;20004;-54
2023/05/19 05:23:55;;;;;;;;;;;14.30;56.10;;;9.22;89.37;95733.81;4990387;28;19924;-52
2023/05/19 05:26:22;;;;;;;;;;;14.30;56.10;;;9.22;89.09;95739.13;4991546;28;20004;-54
2023/05/19 05:28:49;;;;;;;;;;;14.40;56.20;;;9.36;88.70;95742.19;4990333;28;19909;-48
2023/05/19 05:31:15;;;;;;;;;;;14.40;56.20;;;9.39;88.12;95739.00;4990018;28;19984;-54
2023/05/19 05:33:41;;;;;;;;;;;14.50;56.20;;;9.15;88.68;95737.72;4991191;28;19921;-53
2023/05/19 05:36:07;;;;;;;;;;;14.50;56.10;;;9.24;88.90;95737.03;4997491;28;19943;-53
2023/05/19 05:38:33;;;;;;;;;;;14.60;56.00;;;9.16;88.83;95739.34;4994772;28;20004;-54
2023/05/19 05:41:01;;;;;;;;;;;14.60;55.90;;;9.20;87.96;95735.13;4994279;28;20368;-51
2023/05/19 05:43:27;;;;;;;;;;;14.60;55.90;;;9.14;88.35;95736.94;4992472;28;19909;-52
2023/05/19 05:45:53;;;;;;;;;;;14.60;55.90;;;9.23;88.27;95738.06;4994061;28;19912;-52
2023/05/19 05:48:19;;;;;;;;;;;14.60;55.90;;;9.34;86.64;95744.31;4995730;28;19910;-51
2023/05/19 05:50:47;;;;;;;;;;;14.60;55.90;;;9.24;87.22;95738.88;4995472;28;20322;-51
2023/05/19 05:53:18;;;;;;;;;;;14.60;55.90;;;9.35;86.66;95745.09;4995421;28;20380;-50
2023/05/19 05:55:47;;;;;;;;;;;14.60;55.90;;;9.41;86.63;95734.25;4992364;28;19913;-50
2023/05/19 05:58:14;;;;;;;;;;;14.50;55.80;;;9.40;85.94;95739.81;4994232;28;20387;-57
2023/05/19 06:00:44;;;;;;;;;;;14.60;55.90;;;9.46;85.32;95733.47;4993356;28;20239;-52
2023/05/19 06:03:10;;;;;;;;;;;14.70;55.80;;;9.48;85.38;95734.03;4994199;28;20348;-52
2023/05/19 06:05:37;;;;;;;;;;;14.70;55.70;;;9.53;85.03;95735.94;4992398;28;19917;-56
2023/05/19 06:08:03;;;;;;;;;;;14.70;55.70;;;9.53;84.41;95739.41;4994176;28;19909;-50
2023/05/19 06:10:29;;;;;;;;;;;14.80;55.60;;;9.49;84.42;95741.78;4994417;28;19917;-50
2023/05/19 06:12:55;;;;;;;;;;;14.80;55.60;;;9.50;85.04;95742.56;4991550;28;19913;-49
2023/05/19 06:15:21;;;;;;;;;;;14.80;55.60;;;9.46;85.31;95729.00;4993459;28;20010;-50
2023/05/19 06:17:47;;;;;;;;;;;14.80;55.50;;;9.56;85.03;95738.09;4992933;28;19913;-52
2023/05/19 06:20:13;;;;;;;;;;;14.80;55.50;;;9.68;84.33;95734.22;4994198;28;19921;-50
2023/05/19 06:22:39;;;;;;;;;;;14.90;55.60;;;9.75;83.82;95739.31;4994035;28;19910;-52
2023/05/19 06:25:07;;;;;;;;;;;15.00;55.40;;;9.69;82.49;95746.44;4992370;28;19913;-54
2023/05/19 06:27:34;;;;;;;;;;;15.20;55.30;;;9.63;83.77;95739.50;4993170;28;19914;-50
2023/05/19 06:30:00;;;;;;;;;;;15.30;55.20;;;9.73;83.54;95744.06;4992860;28;20008;-52
2023/05/19 06:32:25;;;;;;;;;;;15.30;55.10;;;9.60;83.53;95734.66;4994044;28;20377;-49
2023/05/19 06:34:54;;;;;;;;;;;15.20;55.10;;;9.72;83.56;95737.16;4993855;28;19910;-53
2023/05/19 06:37:23;;;;;;;;;;;15.20;55.10;;;9.76;83.34;95740.91;4992652;28;19909;-52
2023/05/19 06:39:53;;;;;;;;;;;15.20;55.10;;;9.82;83.50;95745.22;4993768;28;19910;-49
2023/05/19 06:42:22;;;;;;;;;;;15.20;55.10;;;9.88;82.47;95746.06;4992460;28;19925;-51
2023/05/19 06:44:50;;;;;;;;;;;15.20;55.10;;;9.65;84.73;95747.19;4993310;28;19921;-49
2023/05/19 06:47:17;;;;;;;;;;;15.20;55.10;;;9.75;83.39;95757.13;4992233;28;20024;-49
2023/05/19 06:49:49;;;;;;;;;;;15.10;55.10;;;9.57;83.79;95750.34;4992419;28;19909;-49
2023/05/19 06:52:16;;;;;;;;;;;15.10;55.10;;;9.67;83.92;95753.06;4993583;28;20364;-49
2023/05/19 06:54:41;;;;;;;;;;;15.00;55.70;;;9.77;83.19;95752.34;4992502;28;20012;-49
2023/05/19 06:57:07;;;;;;;;;;;15.00;55.10;;;9.72;83.10;95745.94;4991811;28;20000;-51
2023/05/19 06:59:33;;;;;;;;;;;15.00;55.20;;;9.60;83.76;95749.84;4989145;28;19941;-51
2023/05/19 07:02:01;;;;;;;;;;;15.00;55.20;;;9.64;84.18;95757.03;4990230;28;19925;-54
2023/05/19 07:04:26;;;;;;;;;;;15.10;55.10;;;9.54;84.02;95753.50;4990120;28;19913;-49
2023/05/19 07:06:52;;;;;;;;;;;15.00;55.00;;;9.72;83.66;95756.59;4989067;28;20356;-51
2023/05/19 07:09:18;;;;;;;;;;;15.10;55.10;;;9.77;83.58;95755.81;4990901;28;19913;-50
2023/05/19 07:11:43;;;;;;;;;;;15.20;55.10;;;9.75;82.81;95755.28;4990114;28;20044;-55
2023/05/19 07:14:09;;;;;;;;;;;15.20;55.00;;;9.74;83.82;95758.97;4990245;28;19920;-49
2023/05/19 07:16:35;;;;;;;;;;;15.20;54.90;;;9.78;83.29;95754.75;4990095;28;19957;-53
2023/05/19 07:19:00;;;;;;;;;;;15.30;54.90;;;9.76;83.08;95759.53;4987938;28;19968;-49
2023/05/19 07:21:26;;;;;;;;;;;15.30;54.90;;;9.65;83.75;95756.00;4990783;28;20356;-50
2023/05/19 07:23:52;;;;;;;;;;;15.30;54.80;;;9.79;82.87;95763.53;4989024;28;19913;-51
2023/05/19 07:26:17;;;;;;;;;;;15.30;54.80;;;9.69;83.24;95754.44;4990290;28;20102;-50
2023/05/19 07:28:43;;;;;;;;;;;15.30;54.80;;;9.77;83.68;95753.13;4991000;28;19917;-52
2023/05/19 07:31:09;;;;;;;;;;;15.30;54.80;;;9.81;83.31;95756.91;4949482;28;20392;-51
2023/05/19 07:33:35;;;;;;;;;;;15.30;54.80;;;9.90;83.54;95758.06;4989656;28;19909;-52
2023/05/19 07:36:01;;;;;;;;;;;15.30;54.80;;;9.90;82.91;95751.91;4989132;28;19979;-49
2023/05/19 07:38:27;;;;;;;;;;;15.30;54.80;;;9.96;82.84;95753.53;4990276;28;19964;-50
2023/05/19 07:40:53;;;;;;;;;;;15.30;54.80;;;9.98;82.83;95745.31;4989033;28;19914;-51
2023/05/19 07:43:19;;;;;;;;;;;15.40;54.80;;;10.04;82.70;95754.94;4987502;28;19943;-53
2023/05/19 07:45:45;;;;;;;;;;;15.50;54.80;;;10.04;82.88;95752.28;4989761;28;19917;-49
2023/05/19 07:48:10;;;;;;;;;;;15.50;54.70;;;10.08;82.68;95756.81;4988491;28;20130;-50
2023/05/19 07:50:36;;;;;;;;;;;15.50;55.30;;;10.11;83.04;95756.31;4992644;28;20361;-49
2023/05/19 07:53:02;;;;;;;;;;;15.50;54.60;;;10.13;82.49;95751.53;4992289;28;19909;-52
2023/05/19 07:55:27;;;;;;;;;;;15.60;54.70;;;10.12;81.97;95752.59;4990898;28;19960;-53
2023/05/19 07:57:53;;;;;;;;;;;15.60;54.60;;;10.20;81.65;95759.28;4991801;28;19918;-49
2023/05/19 08:00:19;;;;;;;;;;;15.70;54.60;;;10.22;81.79;95759.84;4998015;28;19947;-49
2023/05/19 08:02:45;;;;;;;;;;;15.80;54.50;;;10.21;81.96;95758.22;4993059;28;19921;-49
2023/05/19 08:05:11;;;;;;;;;;;15.90;54.40;;;10.31;81.87;95768.16;4990013;28;19928;-56
2023/05/19 08:07:36;;;;;;;;;;;16.00;54.30;;;10.41;81.07;95760.25;4988081;28;19948;-57
2023/05/19 08:10:03;;;;;;;;;;;16.00;54.20;;;10.44;80.78;95753.59;4991595;28;20012;-53
2023/05/19 08:12:28;;;;;;;;;;;16.10;54.20;;;10.40;81.42;95755.97;4991238;28;19909;-56
2023/05/19 08:14:54;;;;;;;;;;;16.10;54.20;;;10.39;81.39;95752.50;4991856;28;19955;-53
2023/05/19 08:17:20;;;;;;;;;;;16.10;54.20;;;10.36;81.09;95749.56;4991573;28;19953;-52
2023/05/19 08:19:46;;;;;;;;;;;16.10;54.10;;;10.45;81.17;95748.00;4991394;28;19916;-53
2023/05/19 08:22:12;;;;;;;;;;;16.10;54.00;;;10.50;80.28;95747.22;4991741;28;19909;-55
2023/05/19 08:24:40;;;;;;;;;;;16.20;54.10;;;10.60;80.22;95756.06;4990995;28;19910;-54
2023/05/19 08:27:06;;;;;;;;;;;16.30;54.00;;;10.59;80.26;95750.97;4991763;28;19996;-50
2023/05/19 08:29:31;;;;;;;;;;;16.40;53.90;;;10.77;79.44;95750.53;4991500;28;20407;-54
2023/05/19 08:31:57;;;;;;;;;;;16.60;53.80;;;10.78;78.41;95740.66;4997067;28;20266;-49
2023/05/19 08:34:23;;;;;;;;;;;16.80;53.70;;;10.74;79.09;95731.59;4990596;28;19913;-50
2023/05/19 08:36:49;;;;;;;;;;;16.90;53.40;;;10.76;79.21;95738.28;4990353;28;20292;-51
2023/05/19 08:39:17;;;;;;;;;;;17.00;53.20;;;10.86;78.78;95735.63;4991695;28;19921;-49
2023/05/19 08:41:43;;;;;;;;;;;17.00;53.10;;;10.76;78.96;95729.50;4991087;28;20016;-51
2023/05/19 08:44:09;;;;;;;;;;;17.00;53.10;;;10.62;78.60;95731.81;4991696;28;19920;-51
2023/05/19 08:46:35;;;;;;;;;;;17.00;53.10;;;10.50;80.33;95736.56;4991378;28;19921;-54
2023/05/19 08:49:11;;;;;;;;;;;16.80;53.00;;;10.71;79.52;95735.59;4994985;28;20314;-50
2023/05/19 08:52:05;;;;;;;;;;;16.80;53.10;;;10.68;79.41;95728.13;4991773;28;19963;-52
2023/05/19 08:54:44;;;;;;;;;;;16.70;53.20;;;10.61;80.02;95731.03;4989604;28;19936;-55
2023/05/19 08:57:11;;;;;;;;;;;16.60;53.20;;;10.68;79.68;95735.31;4990024;28;19917;-54
2023/05/19 08:59:40;;;;;;;;;;;16.60;53.20;;;10.65;79.13;95736.63;5005967;28;19922;-53
2023/05/19 09:02:10;;;;;;;;;;;16.70;53.30;;;10.70;79.51;95731.31;5001415;28;20284;-52
2023/05/19 09:04:37;;;;;;;;;;;16.70;53.20;;;10.88;79.18;95727.41;4991292;28;19909;-56
2023/05/19 09:07:03;;;;;;;;;;;16.80;53.20;;;10.96;78.52;95734.06;4990823;28;19909;-56
2023/05/19 09:09:29;;;;;;;;;;;17.00;53.10;;;11.16;77.98;95733.31;4992386;28;19917;-54
2023/05/19 09:11:55;;;;;;;;;;;17.10;53.00;;;10.97;77.26;95730.31;4997685;28;20367;-52
2023/05/19 09:14:21;;;;;;;;;;;17.20;52.80;;;10.76;79.14;95726.81;4997877;28;19909;-49
2023/05/19 09:16:51;;;;;;;;;;;17.40;52.70;;;10.81;78.82;95724.16;4994015;28;19913;-52
2023/05/19 09:19:17;;;;;;;;;;;17.50;52.60;;;10.84;79.07;95732.44;5004567;28;20360;-52
2023/05/19 09:21:44;;;;;;;;;;;17.50;52.40;;;11.08;77.74;95731.97;4995302;28;19916;-51
2023/05/19 09:24:10;;;;;;;;;;;17.60;52.30;;;11.21;75.97;95723.44;4995116;28;19910;-54
2023/05/19 09:26:41;;;;;;;;;;;17.70;52.20;;;11.20;76.84;95715.72;4993494;28;20398;-54
2023/05/19 09:29:12;;;;;;;;;;;17.70;52.10;;;11.05;76.12;95733.28;4994812;28;20290;-53
2023/05/19 09:31:38;;;;;;;;;;;17.80;52.00;;;11.06;77.05;95728.75;4994296;28;20368;-53
2023/05/19 09:34:10;;;;;;;;;;;18.00;51.80;;;11.30;75.61;95724.53;4994929;28;19910;-49
2023/05/19 09:36:40;;;;;;;;;;;18.10;51.70;;;11.12;76.50;95725.03;5001382;28;19917;-57
2023/05/19 09:39:16;;;;;;;;;;;18.10;51.60;;;11.40;75.68;95723.72;4995132;28;20008;-50
2023/05/19 09:41:42;;;;;;;;;;;18.20;51.60;;;11.47;75.58;95712.78;4994556;28;20399;-53
2023/05/19 09:44:20;;;;;;;;;;;18.30;51.50;;;11.76;75.51;95729.88;4994942;28;20364;-49
2023/05/19 09:46:51;;;;;;;;;;;18.50;51.20;;;11.80;74.09;95727.47;4994518;28;19924;-52
2023/05/19 09:49:30;;;;;;;;;;;18.70;51.00;;;11.72;74.83;95728.00;4994314;28;19996;-52
2023/05/19 09:51:58;;;;;;;;;;;18.90;50.90;;;11.90;73.42;95729.34;4994559;28;19920;-51
2023/05/19 09:54:30;;;;;;;;;;;19.10;50.70;;;12.17;72.33;95737.88;4993943;28;19913;-50
2023/05/19 09:57:00;;;;;;;;;;;19.20;50.40;;;12.16;72.90;95730.94;4981309;28;19996;-55
2023/05/19 09:59:28;;;;;;;;;;;19.40;50.20;;;12.01;73.51;95723.75;4993254;28;20003;-49
2023/05/19 10:01:58;;;;;;;;;;;19.60;50.20;;;12.35;72.56;95727.69;4992529;28;20433;-49
2023/05/19 10:04:28;;;;;;;;;;;19.60;50.00;;;12.39;72.84;95734.06;4991951;28;19909;-50
2023/05/19 10:06:58;;;;;;;;;;;19.70;50.00;;;12.18;71.43;95734.09;4985151;28;19909;-52
2023/05/19 10:09:30;;;;;;;;;;;19.70;49.90;;;12.35;70.53;95722.34;4994345;28;20384;-49
2023/05/19 10:11:57;;;;;;;;;;;19.60;50.00;;;12.26;71.63;95727.44;4992342;28;19918;-49
2023/05/19 10:14:28;;;;;;;;;;;19.60;49.90;;;12.42;71.80;95722.84;4993594;28;19920;-50
2023/05/19 10:16:58;;;;;;;;;;;19.60;50.50;;;12.25;72.18;95731.16;4993901;28;19913;-50
2023/05/19 10:19:27;;;;;;;;;;;19.50;49.90;;;12.25;71.99;95723.16;4993677;28;19913;-49
2023/05/19 10:21:54;;;;;;;;;;;19.40;49.90;;;12.43;72.29;95714.53;4994068;28;20455;-49
2023/05/19 10:24:21;;;;;;;;;;;19.40;49.90;;;12.34;71.85;95715.38;4993344;28;19909;-53
2023/05/19 10:27:04;;;;;;;;;;;19.60;49.90;;;12.39;71.09;95729.53;4993871;28;19909;-49
2023/05/19 10:29:38;;;;;;;;;;;19.70;49.70;;;12.20;71.65;95723.97;4994010;28;20439;-56
2023/05/19 10:32:15;;;;;;;;;;;19.90;49.50;;;12.33;73.31;95727.13;4988817;28;20315;-55
2023/05/19 10:35:08;;;;;;;;;;;19.80;49.40;;;12.30;72.70;95715.13;4993974;28;19929;-51
2023/05/19 10:38:10;;;;;;;;;;;19.80;49.50;;;12.68;72.48;95715.53;4990899;28;19914;-55
2023/05/19 10:41:38;;;;;;;;;;;19.90;49.60;;;13.00;69.20;95717.75;4992514;28;19916;-50
2023/05/19 10:44:56;;;;;;;;;;;20.20;49.40;;;13.41;69.49;95710.31;4984078;28;20368;-51
2023/05/19 10:47:25;;;;;;;;;;;20.60;49.10;;;13.64;67.43;95713.34;4993678;28;20008;-57
2023/05/19 10:49:55;;;;;;;;;;;20.90;48.80;;;13.67;67.79;95709.31;4993063;28;19909;-57
2023/05/19 10:52:25;;;;;;;;;;;21.10;48.80;;;13.41;67.62;95714.84;4993607;28;20372;-57
2023/05/19 10:54:53;;;;;;;;;;;21.10;48.70;;;13.28;69.50;95715.47;4992904;28;19913;-55
2023/05/19 10:57:31;;;;;;;;;;;21.10;48.40;;;13.55;67.75;95715.81;4993199;28;19925;-51
2023/05/19 11:00:10;;;;;;;;;;;21.20;48.20;;;14.04;66.91;95722.06;4992434;28;19929;-53
2023/05/19 11:02:38;;;;;;;;;;;21.50;48.20;;;13.99;67.42;95722.16;4992088;28;19945;-53
2023/05/19 11:05:09;;;;;;;;;;;21.80;47.90;;;14.13;65.97;95717.69;4992728;28;20470;-56
2023/05/19 11:07:35;;;;;;;;;;;22.00;47.70;;;13.66;66.84;95719.19;4990848;28;19910;-57
2023/05/19 11:10:06;;;;;;;;;;;22.10;47.40;;;13.87;66.91;95709.13;4991247;28;19916;-54
2023/05/19 11:12:44;;;;;;;;;;;22.20;47.20;;;14.20;65.68;95712.03;4998651;28;19955;-55
2023/05/19 11:15:15;;;;;;;;;;;22.30;47.10;;;13.78;65.76;95706.25;4992693;28;19916;-56
2023/05/19 11:17:47;;;;;;;;;;;22.40;46.80;;;13.89;66.08;95702.41;4992148;28;20380;-55
2023/05/19 11:20:25;;;;;;;;;;;22.40;46.70;;;13.66;66.52;95705.81;4992186;28;19913;-52
2023/05/19 11:23:20;;;;;;;;;;;22.40;46.50;;;14.19;67.32;95713.09;4992952;28;20387;-52
2023/05/19 11:25:50;;;;;;;;;;;22.30;46.60;;;14.34;64.16;95700.34;4991563;28;19909;-53
2023/05/19 11:28:21;;;;;;;;;;;22.40;46.60;;;14.40;65.05;95705.66;4992879;28;20334;-55
2023/05/19 11:30:49;;;;;;;;;;;22.50;46.60;;;14.68;65.09;95698.66;4985987;28;19910;-57
2023/05/19 11:33:18;;;;;;;;;;;22.50;46.50;;;14.57;62.97;95697.97;4991826;28;19917;-54